createdAt,value
2018-12-19T00:00:34.744Z,1.90
2018-12-19T00:03:02.990Z,1.90
2018-12-19T00:05:31.238Z,1.90
2018-12-19T00:08:00.203Z,2.00
2018-12-19T00:10:28.414Z,2.00
2018-12-19T00:12:57.382Z,1.90
2018-12-19T00:15:25.606Z,1.90
2018-12-19T00:17:53.843Z,1.90
2018-12-19T00:20:22.029Z,1.90
2018-12-19T00:22:51.056Z,1.90
2018-12-19T00:25:19.241Z,1.90
2018-12-19T00:27:47.492Z,1.90
2018-12-19T00:30:15.740Z,2.00
2018-12-19T00:32:44.017Z,2.00
2018-12-19T00:35:12.211Z,2.00
2018-12-19T00:37:41.194Z,1.90
2018-12-19T00:40:10.175Z,1.90
2018-12-19T00:42:38.407Z,1.90
2018-12-19T00:45:06.608Z,1.90
2018-12-19T00:47:34.875Z,1.90
2018-12-19T00:50:03.064Z,1.80
2018-12-19T00:52:31.353Z,1.80
2018-12-19T00:54:59.544Z,1.80
2018-12-19T00:57:28.599Z,1.80
2018-12-19T00:59:56.801Z,1.80
2018-12-19T01:02:25.011Z,1.80
2018-12-19T01:04:53.228Z,1.80
2018-12-19T01:07:21.421Z,1.70
2018-12-19T01:09:49.635Z,1.60
2018-12-19T01:12:17.843Z,1.60
2018-12-19T01:14:46.078Z,1.60
2018-12-19T01:17:15.095Z,1.60
2018-12-19T01:19:43.357Z,1.60
2018-12-19T01:22:11.607Z,1.50
2018-12-19T01:24:39.850Z,1.50
2018-12-19T01:27:08.051Z,1.50
2018-12-19T01:29:36.265Z,1.50
2018-12-19T01:32:04.511Z,1.50
2018-12-19T01:34:32.742Z,1.50
2018-12-19T01:37:00.951Z,1.50
2018-12-19T01:39:29.193Z,1.60
2018-12-19T01:41:57.446Z,1.60
2018-12-19T01:44:26.407Z,1.50
2018-12-19T01:46:54.615Z,1.50
2018-12-19T01:49:22.856Z,1.60
2018-12-19T01:51:51.094Z,1.60
2018-12-19T01:54:19.339Z,1.60
2018-12-19T01:56:48.311Z,1.70
2018-12-19T01:59:17.301Z,1.60
2018-12-19T02:01:45.511Z,1.60
2018-12-19T02:04:13.732Z,1.60
2018-12-19T02:06:41.987Z,1.60
2018-12-19T02:09:10.169Z,1.50
2018-12-19T02:11:38.425Z,1.60
2018-12-19T02:14:06.634Z,1.60
2018-12-19T02:16:34.888Z,1.60
2018-12-19T02:19:03.130Z,1.60
2018-12-19T02:21:32.147Z,1.50
2018-12-19T02:24:00.385Z,1.50
2018-12-19T02:26:28.591Z,1.50
2018-12-19T02:28:56.800Z,1.50
2018-12-19T02:31:25.050Z,1.50
2018-12-19T02:33:53.296Z,1.50
2018-12-19T02:36:21.548Z,1.50
2018-12-19T02:38:49.795Z,1.50
2018-12-19T02:41:17.986Z,1.50
2018-12-19T02:43:46.295Z,1.40
2018-12-19T02:46:14.484Z,1.40
2018-12-19T02:48:43.463Z,1.40
2018-12-19T02:51:11.701Z,1.40
2018-12-19T02:53:39.954Z,1.30
2018-12-19T02:56:08.181Z,1.20
2018-12-19T02:58:36.450Z,1.00
2018-12-19T03:01:04.629Z,1.00
2018-12-19T03:03:32.890Z,0.90
2018-12-19T03:06:01.124Z,0.80
2018-12-19T03:08:30.127Z,0.90
2018-12-19T03:10:58.370Z,0.90
2018-12-19T03:13:27.412Z,1.20
2018-12-19T03:15:55.594Z,1.20
2018-12-19T03:18:23.807Z,1.30
2018-12-19T03:20:52.015Z,1.40
2018-12-19T03:23:20.979Z,1.40
2018-12-19T03:25:50.000Z,1.40
2018-12-19T03:28:19.000Z,1.50
2018-12-19T03:30:47.970Z,1.50
2018-12-19T03:33:16.213Z,1.50
2018-12-19T03:35:44.408Z,1.60
2018-12-19T03:38:12.663Z,1.70
2018-12-19T03:40:40.924Z,1.80
2018-12-19T03:43:09.157Z,1.70
2018-12-19T03:45:37.404Z,1.70
2018-12-19T03:48:05.612Z,1.80
2018-12-19T03:50:34.629Z,1.80
2018-12-19T03:53:02.865Z,1.80
2018-12-19T03:55:31.071Z,1.90
2018-12-19T03:57:59.312Z,1.90
2018-12-19T04:00:27.569Z,1.90
2018-12-19T04:02:55.760Z,2.00
2018-12-19T04:05:23.957Z,1.90
2018-12-19T04:07:52.981Z,2.10
2018-12-19T04:10:21.173Z,2.10
2018-12-19T04:12:49.438Z,2.20
2018-12-19T04:15:17.631Z,2.20
2018-12-19T04:17:45.851Z,2.30
2018-12-19T04:20:14.055Z,2.20
2018-12-19T04:22:42.279Z,2.10
2018-12-19T04:25:10.535Z,2.00
2018-12-19T04:27:38.772Z,2.10
2018-12-19T04:30:07.799Z,2.30
2018-12-19T04:32:36.774Z,2.40
2018-12-19T04:35:04.981Z,2.40
2018-12-19T04:37:33.201Z,2.40
2018-12-19T04:40:05.461Z,2.40
2018-12-19T04:42:30.347Z,2.50
2018-12-19T04:44:58.561Z,2.50
2018-12-19T04:47:27.568Z,2.60
2018-12-19T04:49:55.784Z,2.60
2018-12-19T04:52:24.020Z,2.60
2018-12-19T04:54:53.049Z,2.70
2018-12-19T04:57:22.045Z,2.80
2018-12-19T04:59:50.283Z,2.70
2018-12-19T05:02:18.485Z,2.80
2018-12-19T05:04:46.739Z,2.80
2018-12-19T05:07:15.002Z,2.80
2018-12-19T05:09:43.183Z,2.80
2018-12-19T05:12:12.214Z,2.80
2018-12-19T05:14:40.486Z,2.80
2018-12-19T05:17:08.702Z,2.90
2018-12-19T05:19:36.929Z,2.90
2018-12-19T05:22:05.184Z,2.90
2018-12-19T05:24:34.145Z,2.70
2018-12-19T05:27:02.376Z,2.60
2018-12-19T05:29:30.611Z,2.70
2018-12-19T05:31:58.813Z,2.70
2018-12-19T05:34:27.068Z,2.80
2018-12-19T05:36:55.311Z,2.80
2018-12-19T05:39:23.499Z,2.80
2018-12-19T05:41:51.749Z,2.70
2018-12-19T05:44:19.989Z,2.80
2018-12-19T05:46:49.001Z,2.70
2018-12-19T05:49:17.186Z,2.70
2018-12-19T05:51:45.434Z,2.70
2018-12-19T05:54:13.634Z,2.60
2018-12-19T05:56:41.858Z,2.70
2018-12-19T05:59:10.048Z,2.70
2018-12-19T06:01:39.071Z,2.80
2018-12-19T06:04:07.273Z,2.80
2018-12-19T06:06:35.469Z,2.70
2018-12-19T06:09:03.681Z,2.70
2018-12-19T06:11:31.930Z,2.80
2018-12-19T06:14:00.163Z,2.90
2018-12-19T06:16:28.409Z,2.90
2018-12-19T06:18:57.369Z,2.90
2018-12-19T06:21:25.571Z,2.90
2018-12-19T06:23:54.581Z,2.80
2018-12-19T06:26:22.882Z,2.80
2018-12-19T06:28:51.068Z,2.90
2018-12-19T06:31:19.330Z,3.00
2018-12-19T06:33:48.308Z,2.90
2018-12-19T06:36:16.566Z,2.90
2018-12-19T06:38:45.517Z,2.70
2018-12-19T06:41:13.731Z,2.70
2018-12-19T06:43:42.737Z,2.60
2018-12-19T06:46:11.759Z,2.60
2018-12-19T06:48:39.984Z,2.60
2018-12-19T06:51:08.178Z,2.60
2018-12-19T06:53:36.432Z,2.60
2018-12-19T06:56:04.683Z,2.70
2018-12-19T06:58:32.956Z,2.70
2018-12-19T07:01:01.140Z,2.80
2018-12-19T07:03:29.353Z,2.80
2018-12-19T07:05:57.580Z,2.90
2018-12-19T07:08:25.826Z,2.90
2018-12-19T07:10:54.026Z,2.90
2018-12-19T07:13:22.288Z,2.90
2018-12-19T07:15:50.536Z,3.00
2018-12-19T07:18:19.543Z,3.00
2018-12-19T07:20:47.746Z,3.00
2018-12-19T07:23:15.960Z,3.10
2018-12-19T07:25:44.165Z,3.10
2018-12-19T07:28:12.398Z,3.10
2018-12-19T07:30:40.602Z,3.10
2018-12-19T07:33:09.634Z,3.10
2018-12-19T07:35:37.834Z,3.10
2018-12-19T07:38:06.102Z,3.10
2018-12-19T07:40:34.310Z,3.20
2018-12-19T07:43:02.513Z,3.20
2018-12-19T07:45:31.495Z,3.30
2018-12-19T07:47:59.792Z,3.30
2018-12-19T07:50:28.792Z,3.40
2018-12-19T07:52:57.035Z,3.30
2018-12-19T07:55:25.237Z,3.40
2018-12-19T07:57:53.459Z,3.40
2018-12-19T08:00:27.417Z,3.30
2018-12-19T08:02:50.674Z,3.30
2018-12-19T08:05:25.949Z,3.30
2018-12-19T08:07:47.884Z,3.30
2018-12-19T08:10:16.137Z,3.30
2018-12-19T08:12:44.374Z,3.20
2018-12-19T08:15:12.601Z,3.10
2018-12-19T08:17:40.849Z,3.20
2018-12-19T08:20:09.095Z,3.20
2018-12-19T08:22:37.298Z,3.30
2018-12-19T08:25:06.262Z,3.30
2018-12-19T08:27:34.520Z,3.30
2018-12-19T08:30:02.756Z,3.40
2018-12-19T08:32:30.985Z,3.30
2018-12-19T08:34:59.187Z,3.40
2018-12-19T08:37:27.419Z,3.30
2018-12-19T08:39:55.615Z,3.30
2018-12-19T08:42:23.829Z,3.30
2018-12-19T08:44:52.801Z,3.40
2018-12-19T08:47:21.792Z,3.30
2018-12-19T08:49:50.270Z,3.30
2018-12-19T08:52:18.528Z,3.40
2018-12-19T08:54:46.731Z,3.50
2018-12-19T08:57:14.973Z,3.50
2018-12-19T08:59:43.229Z,3.50
2018-12-19T09:02:12.094Z,3.40
2018-12-19T09:04:40.447Z,3.60
2018-12-19T09:07:08.693Z,3.60
2018-12-19T09:09:36.915Z,3.50
2018-12-19T09:12:05.899Z,3.70
2018-12-19T09:14:34.125Z,3.70
2018-12-19T09:17:02.337Z,3.70
2018-12-19T09:19:30.581Z,3.80
2018-12-19T09:21:58.781Z,3.90
2018-12-19T09:24:27.053Z,3.90
2018-12-19T09:26:55.292Z,3.90
2018-12-19T09:29:23.538Z,4.00
2018-12-19T09:31:51.782Z,4.00
2018-12-19T09:34:20.037Z,4.10
2018-12-19T09:36:48.281Z,4.00
2018-12-19T09:39:17.289Z,4.10
2018-12-19T09:41:46.283Z,4.10
2018-12-19T09:44:14.523Z,4.10
2018-12-19T09:46:42.772Z,4.10
2018-12-19T09:49:12.645Z,3.90
2018-12-19T09:51:40.013Z,3.90
2018-12-19T09:54:08.314Z,3.90
2018-12-19T09:56:36.584Z,4.00
2018-12-19T09:59:04.821Z,4.00
2018-12-19T10:01:33.840Z,4.00
2018-12-19T10:04:02.088Z,4.00
2018-12-19T10:06:31.056Z,4.10
2018-12-19T10:08:59.506Z,4.10
2018-12-19T10:11:27.768Z,4.10
2018-12-19T10:13:56.011Z,4.10
2018-12-19T10:16:25.019Z,4.30
2018-12-19T10:18:54.035Z,4.30
2018-12-19T10:21:22.272Z,4.30
2018-12-19T10:23:50.549Z,4.30
2018-12-19T10:26:18.828Z,4.30
2018-12-19T10:28:47.034Z,4.30
2018-12-19T10:31:15.304Z,4.40
2018-12-19T10:33:44.329Z,4.30
2018-12-19T10:36:12.577Z,4.30
2018-12-19T10:38:41.542Z,4.30
2018-12-19T10:41:09.786Z,4.30
2018-12-19T10:43:37.994Z,4.40
2018-12-19T10:46:06.241Z,4.40
2018-12-19T10:48:34.456Z,4.40
2018-12-19T10:51:02.667Z,4.40
2018-12-19T10:53:30.885Z,4.40
2018-12-19T10:55:59.103Z,4.50
2018-12-19T10:58:27.332Z,4.50
2018-12-19T11:00:58.321Z,4.40
2018-12-19T11:03:26.596Z,4.40
2018-12-19T11:05:54.825Z,4.50
2018-12-19T11:08:23.055Z,4.50
2018-12-19T11:10:51.264Z,4.50
2018-12-19T11:13:19.474Z,4.50
2018-12-19T11:15:48.503Z,4.50
2018-12-19T11:18:16.745Z,4.50
2018-12-19T11:20:44.945Z,4.60
2018-12-19T11:23:13.953Z,4.60
2018-12-19T11:25:42.921Z,4.70
2018-12-19T11:28:11.889Z,4.70
2018-12-19T11:30:40.151Z,4.70
2018-12-19T11:33:08.445Z,4.80
2018-12-19T11:35:36.685Z,4.70
2018-12-19T11:38:04.885Z,4.80
2018-12-19T11:40:33.129Z,4.80
2018-12-19T11:43:01.373Z,4.90
2018-12-19T11:45:30.353Z,4.90
2018-12-19T11:47:58.573Z,4.90
2018-12-19T11:50:26.841Z,5.00
2018-12-19T11:52:55.091Z,5.00
2018-12-19T11:55:23.352Z,5.00
2018-12-19T11:57:51.587Z,5.00
2018-12-19T12:00:19.817Z,5.10
2018-12-19T12:02:48.093Z,5.10
2018-12-19T12:05:16.324Z,5.10
2018-12-19T12:07:44.532Z,5.10
2018-12-19T12:10:12.739Z,5.10
2018-12-19T12:12:41.815Z,5.10
2018-12-19T12:15:10.013Z,5.10
2018-12-19T12:17:38.287Z,5.20
2018-12-19T12:20:07.321Z,5.10
2018-12-19T12:22:35.567Z,5.10
2018-12-19T12:25:04.521Z,5.10
2018-12-19T12:27:32.749Z,5.10
2018-12-19T12:30:01.013Z,5.20
2018-12-19T12:32:29.982Z,5.10
2018-12-19T12:34:59.007Z,5.20
2018-12-19T12:37:27.965Z,5.20
2018-12-19T12:39:56.225Z,5.20
2018-12-19T12:42:24.470Z,5.20
2018-12-19T12:44:52.697Z,5.20
2018-12-19T12:47:20.883Z,5.20
2018-12-19T12:49:49.875Z,5.20
2018-12-19T12:52:18.858Z,5.30
2018-12-19T12:54:47.115Z,5.20
2018-12-19T12:57:16.077Z,5.30
2018-12-19T12:59:44.299Z,5.30
2018-12-19T13:02:12.507Z,5.30
2018-12-19T13:04:41.491Z,5.30
2018-12-19T13:07:10.501Z,5.30
2018-12-19T13:09:39.476Z,5.30
2018-12-19T13:12:08.435Z,5.30
2018-12-19T13:14:36.669Z,5.30
2018-12-19T13:17:05.629Z,5.20
2018-12-19T13:19:34.613Z,5.20
2018-12-19T13:22:02.823Z,5.20
2018-12-19T13:24:31.085Z,5.20
2018-12-19T13:27:00.053Z,5.00
2018-12-19T13:29:28.271Z,5.00
2018-12-19T13:31:56.524Z,4.90
2018-12-19T13:34:24.729Z,5.00
2018-12-19T13:36:52.974Z,5.00
2018-12-19T13:39:21.247Z,5.00
2018-12-19T13:41:49.439Z,5.10
2018-12-19T13:44:18.401Z,5.10
2018-12-19T13:46:46.624Z,5.10
2018-12-19T13:49:14.874Z,5.10
2018-12-19T13:51:43.842Z,5.20
2018-12-19T13:54:12.119Z,5.10
2018-12-19T13:56:40.384Z,5.10
2018-12-19T13:59:09.465Z,5.10
2018-12-19T14:01:37.667Z,5.10
2018-12-19T14:04:05.869Z,5.20
2018-12-19T14:06:34.864Z,5.20
2018-12-19T14:09:03.844Z,5.30
2018-12-19T14:11:32.068Z,5.20
2018-12-19T14:14:00.329Z,5.30
2018-12-19T14:16:29.301Z,5.30
2018-12-19T14:18:58.279Z,5.40
2018-12-19T14:21:26.508Z,5.40
2018-12-19T14:23:54.739Z,5.40
2018-12-19T14:26:23.018Z,5.40
2018-12-19T14:28:51.799Z,5.40
2018-12-19T14:31:20.039Z,5.40
2018-12-19T14:33:49.082Z,5.40
2018-12-19T14:36:17.282Z,5.40
2018-12-19T14:38:45.511Z,5.40
2018-12-19T14:41:13.763Z,5.40
2018-12-19T14:43:41.980Z,5.40
2018-12-19T14:46:11.011Z,5.40
2018-12-19T14:48:39.978Z,5.40
2018-12-19T14:51:18.926Z,5.40
2018-12-19T14:53:47.948Z,5.40
2018-12-19T14:56:16.182Z,5.40
2018-12-19T14:58:44.434Z,5.40
2018-12-19T15:01:12.676Z,5.40
2018-12-19T15:03:40.890Z,5.50
2018-12-19T15:06:09.132Z,5.40
2018-12-19T15:08:37.347Z,5.40
2018-12-19T15:11:05.591Z,5.40
2018-12-19T15:13:33.812Z,5.40
2018-12-19T15:16:02.789Z,5.30
2018-12-19T15:18:31.010Z,5.40
2018-12-19T15:20:59.243Z,5.40
2018-12-19T15:23:27.464Z,5.40
2018-12-19T15:25:55.659Z,5.40
2018-12-19T15:28:23.924Z,5.40
2018-12-19T15:30:52.121Z,5.40
2018-12-19T15:33:20.381Z,5.40
2018-12-19T15:35:48.575Z,5.40
2018-12-19T15:38:16.813Z,5.30
2018-12-19T15:40:45.055Z,5.30
2018-12-19T15:43:13.260Z,5.30
2018-12-19T15:45:41.527Z,5.30
2018-12-19T15:48:10.547Z,5.30
2018-12-19T15:50:38.799Z,5.30
2018-12-19T15:53:07.776Z,5.30
2018-12-19T15:55:36.032Z,5.30
2018-12-19T15:58:05.029Z,5.30
2018-12-19T16:00:33.275Z,5.30
2018-12-19T16:03:01.532Z,5.30
2018-12-19T16:05:30.505Z,5.30
2018-12-19T16:07:59.514Z,5.30
2018-12-19T16:10:28.535Z,5.30
2018-12-19T16:12:56.745Z,5.30
2018-12-19T16:15:24.998Z,5.30
2018-12-19T16:17:53.954Z,5.30
2018-12-19T16:20:22.210Z,5.30
2018-12-19T16:22:50.400Z,5.30
2018-12-19T16:25:19.424Z,5.40
2018-12-19T16:27:47.618Z,5.30
2018-12-19T16:30:15.878Z,5.30
2018-12-19T16:32:44.091Z,5.30
2018-12-19T16:35:12.341Z,5.30
2018-12-19T16:37:40.605Z,5.30
2018-12-19T16:40:08.812Z,5.30
2018-12-19T16:42:37.040Z,5.30
2018-12-19T16:45:05.247Z,5.30
2018-12-19T16:47:33.570Z,5.30
2018-12-19T16:50:01.771Z,5.30
2018-12-19T16:52:30.747Z,5.30
2018-12-19T16:54:59.757Z,5.30
2018-12-19T16:57:27.976Z,5.30
2018-12-19T16:59:56.196Z,5.30
2018-12-19T17:02:25.215Z,5.20
2018-12-19T17:04:53.396Z,5.20
2018-12-19T17:07:21.626Z,5.20
2018-12-19T17:09:49.819Z,5.20
2018-12-19T17:12:18.848Z,5.20
2018-12-19T17:14:47.068Z,5.20
2018-12-19T17:17:15.344Z,5.20
2018-12-19T17:19:43.502Z,5.10
2018-12-19T17:22:11.716Z,5.10
2018-12-19T17:24:40.696Z,5.20
2018-12-19T17:27:09.678Z,5.20
2018-12-19T17:29:37.890Z,5.20
2018-12-19T17:32:06.133Z,5.10
2018-12-19T17:34:34.348Z,5.10
2018-12-19T17:37:03.294Z,5.10
2018-12-19T17:39:31.547Z,5.10
2018-12-19T17:41:59.743Z,5.20
2018-12-19T17:44:28.005Z,5.10
2018-12-19T17:46:56.255Z,5.10
2018-12-19T17:49:24.512Z,5.10
2018-12-19T17:51:53.548Z,5.10
2018-12-19T17:54:21.758Z,5.10
2018-12-19T17:56:50.010Z,5.10
2018-12-19T17:59:18.293Z,5.10
2018-12-19T18:01:46.553Z,5.10
2018-12-19T18:04:14.752Z,5.10
2018-12-19T18:06:42.970Z,5.10
2018-12-19T18:09:11.230Z,5.10
2018-12-19T18:11:39.500Z,5.10
2018-12-19T18:14:07.688Z,5.10
2018-12-19T18:16:36.763Z,5.20
2018-12-19T18:19:05.025Z,5.10
2018-12-19T18:21:33.302Z,5.20
2018-12-19T18:24:01.538Z,5.10
2018-12-19T18:26:29.755Z,5.20
2018-12-19T18:28:57.994Z,5.20
2018-12-19T18:31:26.274Z,5.20
2018-12-19T18:33:54.484Z,5.20
2018-12-19T18:36:22.681Z,5.20
2018-12-19T18:38:50.947Z,5.20
2018-12-19T18:41:19.178Z,5.20
2018-12-19T18:43:48.009Z,5.30
2018-12-19T18:46:16.284Z,5.30
2018-12-19T18:48:44.462Z,5.30
2018-12-19T18:51:12.717Z,5.30
2018-12-19T18:53:40.979Z,5.30
2018-12-19T18:56:10.005Z,5.30
2018-12-19T18:58:38.254Z,5.30
2018-12-19T19:01:06.496Z,5.30
2018-12-19T19:03:35.247Z,5.20
2018-12-19T19:06:03.425Z,5.30
2018-12-19T19:08:32.417Z,5.30
2018-12-19T19:11:00.635Z,5.30
2018-12-19T19:13:29.617Z,5.30
2018-12-19T19:15:58.634Z,5.30
2018-12-19T19:18:26.870Z,5.30
2018-12-19T19:20:55.086Z,5.30
2018-12-19T19:23:32.656Z,5.40
2018-12-19T19:26:00.891Z,5.40
2018-12-19T19:28:29.124Z,5.40
2018-12-19T19:30:58.142Z,5.30
2018-12-19T19:33:26.373Z,5.30
2018-12-19T19:35:54.574Z,5.30
2018-12-19T19:38:22.808Z,5.30
2018-12-19T19:40:51.008Z,5.30
2018-12-19T19:43:26.331Z,5.20
2018-12-19T19:45:48.219Z,5.20
2018-12-19T19:48:16.466Z,5.20
2018-12-19T19:50:45.499Z,5.20
2018-12-19T19:53:13.746Z,5.20
2018-12-19T19:55:42.724Z,5.20
2018-12-19T19:58:11.713Z,5.10
2018-12-19T20:00:40.739Z,5.10
2018-12-19T20:03:08.939Z,5.10
2018-12-19T20:05:37.153Z,5.10
2018-12-19T20:08:05.370Z,5.00
2018-12-19T20:10:33.618Z,5.00
2018-12-19T20:13:02.643Z,5.00
2018-12-19T20:15:30.896Z,4.90
2018-12-19T20:17:59.873Z,5.00
2018-12-19T20:20:28.135Z,5.00
2018-12-19T20:22:56.332Z,5.00
2018-12-19T20:25:25.367Z,5.00
2018-12-19T20:27:53.560Z,5.00
2018-12-19T20:30:21.776Z,5.10
2018-12-19T20:32:50.757Z,5.00
2018-12-19T20:35:18.992Z,5.00
2018-12-19T20:37:47.182Z,5.00
2018-12-19T20:40:15.411Z,5.00
2018-12-19T20:42:44.377Z,5.00
2018-12-19T20:45:13.362Z,5.00
2018-12-19T20:47:40.866Z,5.00
2018-12-19T20:50:09.831Z,5.00
2018-12-19T20:52:38.091Z,5.00
2018-12-19T20:55:06.279Z,5.00
2018-12-19T20:57:34.541Z,5.00
2018-12-19T21:00:02.744Z,5.10
2018-12-19T21:02:31.782Z,5.00
2018-12-19T21:05:00.069Z,5.00
2018-12-19T21:07:28.271Z,5.10
2018-12-19T21:09:56.510Z,5.10
2018-12-19T21:12:24.763Z,5.00
2018-12-19T21:14:52.977Z,5.00
2018-12-19T21:17:26.778Z,5.00
2018-12-19T21:19:54.970Z,5.00
2018-12-19T21:22:23.199Z,5.00
2018-12-19T21:24:51.457Z,5.00
2018-12-19T21:27:19.678Z,5.00
2018-12-19T21:29:47.892Z,4.90
2018-12-19T21:32:16.088Z,4.90
2018-12-19T21:34:45.094Z,4.90
2018-12-19T21:37:14.139Z,4.90
2018-12-19T21:39:42.406Z,4.80
2018-12-19T21:42:10.603Z,4.80
2018-12-19T21:44:38.892Z,4.80
2018-12-19T21:47:07.096Z,4.80
2018-12-19T21:49:35.344Z,4.90
2018-12-19T21:52:04.858Z,4.80
2018-12-19T21:54:33.870Z,4.80
2018-12-19T21:57:03.021Z,4.80
2018-12-19T21:59:31.847Z,4.80
2018-12-19T22:02:00.851Z,4.90
2018-12-19T22:04:29.886Z,4.80
2018-12-19T22:06:58.090Z,4.80
2018-12-19T22:09:26.341Z,4.80
2018-12-19T22:11:54.554Z,4.80
2018-12-19T22:14:22.837Z,4.80
2018-12-19T22:16:56.681Z,4.80
2018-12-19T22:19:24.963Z,4.80
2018-12-19T22:21:53.098Z,4.90
2018-12-19T22:24:21.430Z,4.90
2018-12-19T22:26:49.629Z,4.90
2018-12-19T22:29:17.850Z,4.90
2018-12-19T22:31:46.102Z,4.90
2018-12-19T22:34:14.305Z,4.90
2018-12-19T22:36:42.538Z,4.90
2018-12-19T22:39:10.759Z,4.90
2018-12-19T22:41:38.954Z,4.90
2018-12-19T22:44:08.067Z,4.90
2018-12-19T22:46:35.360Z,5.00
2018-12-19T22:49:04.441Z,5.00
2018-12-19T22:51:32.625Z,5.00
2018-12-19T22:54:00.974Z,5.00
2018-12-19T22:56:29.183Z,5.00
2018-12-19T22:58:57.356Z,5.00
2018-12-19T23:01:31.130Z,5.00
2018-12-19T23:04:05.833Z,5.00
2018-12-19T23:06:34.204Z,5.00
2018-12-19T23:09:02.320Z,5.00
2018-12-19T23:11:30.543Z,4.90
2018-12-19T23:13:58.882Z,5.00
2018-12-19T23:16:27.032Z,5.00
2018-12-19T23:18:55.276Z,5.00
2018-12-19T23:21:23.540Z,5.00
2018-12-19T23:23:52.513Z,5.00
2018-12-19T23:26:20.711Z,5.00
2018-12-19T23:28:49.013Z,5.00
2018-12-19T23:31:17.184Z,5.00
2018-12-19T23:33:45.385Z,4.90
2018-12-19T23:36:13.652Z,5.00
2018-12-19T23:38:41.909Z,5.00
2018-12-19T23:41:10.119Z,4.90
2018-12-19T23:43:38.481Z,4.90
2018-12-19T23:46:06.667Z,4.90
2018-12-19T23:48:34.862Z,4.90
2018-12-19T23:51:03.041Z,5.00
2018-12-19T23:53:31.266Z,4.90
2018-12-19T23:56:00.915Z,5.00
2018-12-19T23:58:28.704Z,5.00
